< < Back
Terminal Aerodrome Forecast


Current Version              Previous Versions:   1  2  3  4  5  6  7  8  9  

Terminal Aerodrome Forecast

978
FTUS42 KFFC 022334
TAFFTY
TAF
KFTY 022334Z 0300/0324 24007G16KT P6SM SCT050 BKN100
     FM030200 25006KT P6SM SCT060 BKN250
     FM030900 23005KT 4SM BR BKN012
     FM031400 25012KT P6SM BKN025 BKN250
     FM031600 26012G18KT P6SM SCT050 BKN250 PROB30 0318/0323 4SM
      TSRA BKN025CB=



Latest METAR

902
SAUS70 KWBC 031000 RRL
MTRFTY
METAR KFTY 030953Z 22008KT 10SM FEW007 SCT036 23/22 A2995 RMK AO2 LTG
DSNT N SLP130 T02330217


USA.gov is the U.S. government's official web portal to all federal, state and local government web resources and services.